createdAt,value
2022-08-30T00:01:46.107Z,0
2022-08-30T00:11:46.125Z,0
2022-08-30T00:21:46.154Z,0
2022-08-30T00:31:46.162Z,4
2022-08-30T00:41:46.189Z,0
2022-08-30T00:51:46.207Z,0
2022-08-30T01:11:46.262Z,0
2022-08-30T01:21:46.290Z,0
2022-08-30T01:31:46.363Z,1
2022-08-30T01:41:46.334Z,0
2022-08-30T01:51:46.337Z,2
2022-08-30T02:01:46.368Z,0
2022-08-30T02:11:46.410Z,0
2022-08-30T02:21:46.406Z,1
2022-08-30T02:31:46.443Z,2
2022-08-30T02:41:46.458Z,1
2022-08-30T02:51:46.480Z,1
2022-08-30T03:01:46.503Z,0
2022-08-30T03:11:46.544Z,0
2022-08-30T03:21:46.556Z,4
2022-08-30T03:31:46.596Z,1
2022-08-30T03:41:46.601Z,0
2022-08-30T03:51:46.632Z,5
2022-08-30T04:01:46.662Z,41
2022-08-30T04:11:46.683Z,61
2022-08-30T04:21:46.708Z,70
2022-08-30T04:31:46.734Z,81
2022-08-30T04:41:46.751Z,75
2022-08-30T04:51:46.759Z,76
2022-08-30T05:01:46.796Z,73
2022-08-30T05:11:46.824Z,68
2022-08-30T05:21:46.835Z,66
2022-08-30T05:31:46.855Z,53
2022-08-30T05:41:46.877Z,37
2022-08-30T05:51:46.897Z,61
2022-08-30T06:01:46.954Z,49
2022-08-30T06:11:46.951Z,45
2022-08-30T06:21:46.971Z,46
2022-08-30T06:31:46.985Z,46
2022-08-30T06:41:47.009Z,44
2022-08-30T06:51:47.057Z,44
2022-08-30T07:01:47.072Z,44
2022-08-30T07:11:47.086Z,41
2022-08-30T07:21:47.126Z,51
2022-08-30T07:31:47.149Z,42
2022-08-30T07:41:47.165Z,48
2022-08-30T07:51:47.173Z,51
2022-08-30T08:01:47.211Z,39
2022-08-30T08:11:47.277Z,53
2022-08-30T08:21:47.260Z,45
2022-08-30T08:31:47.275Z,58
2022-08-30T08:41:47.314Z,38
2022-08-30T08:51:47.342Z,51
2022-08-30T09:01:47.353Z,58
2022-08-30T09:11:47.428Z,47
2022-08-30T09:21:47.426Z,59
2022-08-30T09:31:47.485Z,68
2022-08-30T09:41:47.455Z,83
2022-08-30T09:51:47.529Z,7
2022-08-30T10:01:47.569Z,48
2022-08-30T10:11:47.575Z,0
2022-08-30T10:21:47.585Z,2
2022-08-30T10:31:47.593Z,79
2022-08-30T10:41:47.653Z,75
2022-08-30T10:51:47.666Z,0
2022-08-30T11:01:47.676Z,63
2022-08-30T11:11:47.711Z,68
2022-08-30T11:21:47.766Z,58
2022-08-30T11:31:47.761Z,14
2022-08-30T11:41:47.767Z,78
2022-08-30T11:51:47.879Z,81
2022-08-30T12:01:47.832Z,58
2022-08-30T12:11:47.855Z,36
2022-08-30T12:21:47.900Z,79
2022-08-30T12:31:47.936Z,1
2022-08-30T12:41:47.969Z,1
2022-08-30T12:51:47.955Z,0
2022-08-30T13:01:47.989Z,1
2022-08-30T13:11:47.987Z,0
2022-08-30T13:21:48.022Z,1
2022-08-30T13:31:48.047Z,0
2022-08-30T13:41:48.077Z,1
2022-08-30T13:51:48.094Z,2
2022-08-30T14:01:48.121Z,1
2022-08-30T14:11:48.142Z,1
2022-08-30T14:21:48.166Z,2
2022-08-30T14:31:48.187Z,4
2022-08-30T14:41:48.228Z,1
2022-08-30T14:51:48.263Z,0
2022-08-30T15:01:48.294Z,5
2022-08-30T15:11:48.283Z,1
2022-08-30T15:21:48.326Z,1
2022-08-30T15:31:48.362Z,1
2022-08-30T15:41:48.375Z,0
2022-08-30T15:51:48.402Z,2
2022-08-30T16:11:48.427Z,1
2022-08-30T16:21:48.460Z,2
2022-08-30T16:31:48.500Z,0
2022-08-30T16:41:48.516Z,1
2022-08-30T16:51:48.543Z,2
2022-08-30T17:01:48.639Z,1
2022-08-30T17:11:48.591Z,1
2022-08-30T17:21:48.636Z,2
2022-08-30T17:31:48.632Z,3
2022-08-30T17:41:48.681Z,2
2022-08-30T17:51:48.668Z,2
2022-08-30T18:01:48.732Z,1
2022-08-30T18:11:48.751Z,2
2022-08-30T18:21:48.796Z,0
2022-08-30T18:31:48.819Z,4
2022-08-30T18:41:48.839Z,45
2022-08-30T18:51:48.846Z,70
2022-08-30T19:01:48.902Z,84
2022-08-30T19:11:48.896Z,84
2022-08-30T19:21:48.931Z,85
2022-08-30T19:31:48.957Z,86
2022-08-30T19:41:49.028Z,81
2022-08-30T19:51:49.012Z,81
2022-08-30T20:01:49.041Z,78
2022-08-30T20:11:49.044Z,76
2022-08-30T20:21:49.081Z,70
2022-08-30T20:31:49.074Z,77
2022-08-30T20:41:49.101Z,77
2022-08-30T20:51:49.154Z,73
2022-08-30T21:01:49.174Z,63
2022-08-30T21:11:49.187Z,65
2022-08-30T21:21:49.200Z,61
2022-08-30T21:31:49.216Z,63
2022-08-30T21:41:49.265Z,59
2022-08-30T21:51:49.264Z,54
2022-08-30T22:01:49.301Z,56
2022-08-30T22:11:49.321Z,27
2022-08-30T22:21:49.350Z,23
2022-08-30T22:31:49.395Z,15
2022-08-30T22:41:49.392Z,16
2022-08-30T22:51:49.427Z,16
2022-08-30T23:01:49.450Z,18
2022-08-30T23:11:49.495Z,19
2022-08-30T23:21:49.482Z,17
2022-08-30T23:31:49.505Z,16
2022-08-30T23:41:49.545Z,12
2022-08-30T23:51:49.565Z,20
